Time;durP1;ratioP1;P1;durP2;ratioP2;P2;SDS_P1;SDS_P2;PMS_P1;PMS_P2;Temp;Humidity;BMP_temperature;BMP_pressure;BME280_temperature;BME280_humidity;BME280_pressure;Samples;Min_cycle;Max_cycle;Signal;HPM_P1;HPM_P2
2022/08/25 00:01:57;;;;;;;13.78;3.83;;;;;;;23.03;67.92;100638.57;1674991;85;25671;-70
2022/08/25 00:04:25;;;;;;;17.60;3.95;;;;;;;23.01;67.88;100647.23;1673347;84;25694;-69
2022/08/25 00:06:54;;;;;;;14.65;3.92;;;;;;;22.98;68.00;100645.23;1675088;84;26276;-71
2022/08/25 00:09:26;;;;;;;14.00;3.62;;;;;;;22.98;68.12;100645.23;1674915;84;30344;-72
2022/08/25 00:11:54;;;;;;;13.15;3.33;;;;;;;22.96;68.13;100635.18;1655063;85;25791;-72
2022/08/25 00:14:25;;;;;;;11.83;3.12;;;;;;;22.96;68.11;100641.30;1675086;84;25788;-70
2022/08/25 00:16:51;;;;;;;12.13;3.30;;;;;;;22.95;68.13;100637.73;1674750;84;25637;-71
2022/08/25 00:19:23;;;;;;;18.57;4.00;;;;;;;22.96;68.19;100639.91;1680682;84;25751;-69
2022/08/25 00:21:50;;;;;;;18.10;4.35;;;;;;;22.96;68.23;100635.78;1691832;83;26947;-70
2022/08/25 00:24:19;;;;;;;15.72;3.58;;;;;;;22.96;68.27;100632.42;1688075;84;25783;-70
2022/08/25 00:26:48;;;;;;;16.25;3.90;;;;;;;22.97;68.30;100629.87;1687242;83;25695;-69
2022/08/25 00:29:16;;;;;;;13.95;3.80;;;;;;;22.96;68.28;100625.53;1667259;85;25494;-69
2022/08/25 00:31:44;;;;;;;14.25;4.15;;;;;;;22.94;68.21;100622.38;1686929;84;25752;-69
2022/08/25 00:34:18;;;;;;;15.43;4.12;;;;;;;22.93;68.33;100618.83;1681594;83;27354;-70
2022/08/25 00:36:46;;;;;;;18.50;4.00;;;;;;;22.92;68.34;100617.83;1687049;84;25592;-71
2022/08/25 00:39:12;;;;;;;15.43;3.50;;;;;;;22.92;68.43;100615.08;1686889;84;25456;-71
2022/08/25 00:41:41;;;;;;;12.85;4.22;;;;;;;22.92;68.52;100610.34;1684343;85;25781;-70
2022/08/25 00:44:11;;;;;;;11.00;3.62;;;;;;;22.93;68.56;100605.61;1687016;83;25719;-70
2022/08/25 00:46:46;;;;;;;17.60;3.60;;;;;;;22.92;68.57;100610.94;1644116;86;27310;-70
2022/08/25 00:49:26;;;;;;;11.63;3.47;;;;;;;22.91;68.74;100610.13;1684187;83;25624;-69
2022/08/25 00:52:10;;;;;;;11.83;3.72;;;;;;;22.88;68.77;100604.59;1687071;83;25755;-70
2022/08/25 00:54:47;;;;;;;11.88;3.87;;;;;;;22.87;68.90;100606.58;1686868;84;25683;-68
2022/08/25 00:57:17;;;;;;;15.68;4.22;;;;;;;22.86;69.08;100603.59;1687112;83;25574;-68
2022/08/25 00:59:44;;;;;;;16.87;3.60;;;;;;;22.86;69.10;100608.34;1687342;83;27304;-68
2022/08/25 01:02:14;;;;;;;16.60;3.62;;;;;;;22.84;69.33;100610.69;1687369;84;25644;-69
2022/08/25 01:04:43;;;;;;;15.03;3.60;;;;;;;22.81;69.31;100605.34;1667470;85;25436;-69
2022/08/25 01:07:10;;;;;;;;;;;;;;;22.79;69.42;100598.05;1689339;84;25572;-69
2022/08/25 01:09:38;;;;;;;15.45;4.25;;;;;;;22.79;69.77;100602.19;1687419;84;25596;-69
2022/08/25 01:12:05;;;;;;;12.88;4.33;;;;;;;22.78;69.74;100595.67;1687351;84;27328;-69
2022/08/25 01:14:33;;;;;;;16.75;5.20;;;;;;;22.78;69.87;100597.84;1667654;84;25680;-69
2022/08/25 01:17:00;;;;;;;16.37;4.05;;;;;;;22.78;70.06;100596.45;1684803;85;25643;-69
2022/08/25 01:19:28;;;;;;;14.38;3.67;;;;;;;22.78;70.01;100591.54;1685584;84;26070;-69
2022/08/25 01:21:54;;;;;;;25.40;4.77;;;;;;;22.78;70.10;100590.94;1679204;84;25459;-69
2022/08/25 01:24:41;;;;;;;14.53;3.95;;;;;;;22.78;70.36;100595.67;1675334;84;27365;-69
2022/08/25 01:27:09;;;;;;;14.85;4.83;;;;;;;22.76;70.54;100590.55;1621124;87;25815;-69
2022/08/25 01:29:37;;;;;;;13.20;4.55;;;;;;;22.76;70.63;100594.68;1600970;88;25799;-69
2022/08/25 01:32:08;;;;;;;13.88;4.55;;;;;;;22.75;70.73;100595.28;1622014;88;25459;-69
2022/08/25 01:34:40;;;;;;;18.55;4.70;;;;;;;22.76;70.86;100597.44;1623299;88;25618;-69
2022/08/25 01:37:08;;;;;;;16.85;4.87;;;;;;;22.78;70.92;100603.95;1622591;87;27521;-69
2022/08/25 01:39:35;;;;;;;16.50;4.72;;;;;;;22.75;71.01;100610.44;1608893;88;25694;-68
2022/08/25 01:42:13;;;;;;;14.13;5.03;;;;;;;22.75;71.16;100606.90;1588524;87;25771;-69
2022/08/25 01:44:44;;;;;;;19.05;4.70;;;;;;;22.73;71.31;100597.63;1616382;88;25545;-68
2022/08/25 01:47:11;;;;;;;16.97;5.17;;;;;;;22.75;71.41;100605.52;1622917;87;25503;-68
2022/08/25 01:49:37;;;;;;;19.95;4.72;;;;;;;22.75;71.49;100604.14;1611125;87;27283;-68
2022/08/25 01:52:30;;;;;;;18.57;5.37;;;;;;;22.75;71.62;100605.52;1601535;88;25600;-68
2022/08/25 01:54:56;;;;;;;21.50;5.47;;;;;;;22.75;71.71;100608.28;1618502;88;25648;-68
2022/08/25 01:57:23;;;;;;;16.57;5.35;;;;;;;22.72;71.70;100608.45;1604695;88;25826;-69
2022/08/25 01:59:49;;;;;;;20.08;5.58;;;;;;;22.73;71.98;100609.23;1615378;87;25677;-69
2022/08/25 02:02:16;;;;;;;24.20;6.03;;;;;;;22.71;71.99;100606.88;1618499;88;29690;-69
2022/08/25 02:04:42;;;;;;;19.12;5.70;;;;;;;22.72;72.08;100602.94;1667459;85;25566;-69
2022/08/25 02:07:08;;;;;;;28.65;6.58;;;;;;;22.70;72.23;100599.77;1675486;84;25711;-68
2022/08/25 02:09:38;;;;;;;20.70;5.67;;;;;;;22.72;72.32;100605.69;1675380;84;25682;-68
2022/08/25 02:12:05;;;;;;;25.15;5.65;;;;;;;22.71;72.39;100604.13;1675599;84;25467;-68
2022/08/25 02:14:34;;;;;;;21.68;5.58;;;;;;;22.71;72.43;100599.18;1675178;84;27504;-69
2022/08/25 02:17:00;;;;;;;24.43;6.10;;;;;;;22.69;72.50;100593.27;1675437;84;25582;-68
2022/08/25 02:19:26;;;;;;;14.60;5.45;;;;;;;22.68;72.72;100590.29;1676356;84;25414;-69
2022/08/25 02:21:53;;;;;;;16.42;6.42;;;;;;;22.65;72.63;100590.48;1683380;83;27582;-69
2022/08/25 02:24:19;;;;;;;17.62;6.33;;;;;;;22.62;72.68;100591.25;1684622;84;25474;-68
2022/08/25 02:26:46;;;;;;;17.92;5.85;;;;;;;22.60;72.72;100588.69;1684442;83;27520;-68
2022/08/25 02:29:12;;;;;;;25.40;6.80;;;;;;;22.57;72.83;100587.48;1684441;83;25669;-69
2022/08/25 02:31:40;;;;;;;18.05;6.72;;;;;;;22.54;73.05;100584.11;1684400;84;25675;-69
2022/08/25 02:34:08;;;;;;;21.37;6.62;;;;;;;22.52;73.19;100588.62;1653338;85;25591;-68
2022/08/25 02:36:37;;;;;;;14.73;5.65;;;;;;;22.51;73.12;100588.43;1684679;84;25417;-69
2022/08/25 02:39:06;;;;;;;21.82;6.78;;;;;;;22.50;73.23;100586.05;1685685;84;27335;-69
2022/08/25 02:41:33;;;;;;;18.85;7.05;;;;;;;22.48;73.32;100589.79;1684365;84;25635;-69
2022/08/25 02:44:02;;;;;;;19.87;5.83;;;;;;;22.46;73.53;100592.92;1684559;84;25604;-69
2022/08/25 02:46:29;;;;;;;;;;;;;;;22.45;73.72;100594.09;1686609;84;25644;-69
2022/08/25 02:48:56;;;;;;;21.30;6.28;;;;;;;22.44;73.97;100597.22;1684347;84;25669;-69
2022/08/25 02:51:27;;;;;;;29.40;7.62;;;;;;;22.42;73.96;100592.09;1649344;84;27323;-69
2022/08/25 02:53:53;;;;;;;21.60;6.67;;;;;;;22.41;74.17;100594.66;1684431;85;25645;-69
2022/08/25 02:56:19;;;;;;;24.32;7.42;;;;;;;22.40;74.09;100588.94;1680563;83;25494;-69
2022/08/25 02:58:47;;;;;;;23.87;7.15;;;;;;;22.38;74.13;100587.16;1684474;85;25596;-69
2022/08/25 03:01:15;;;;;;;21.73;7.15;;;;;;;22.38;74.47;100594.05;1684398;83;25497;-69
2022/08/25 03:03:44;;;;;;;30.27;7.20;;;;;;;22.36;74.45;100593.64;1662930;85;28092;-69
2022/08/25 03:06:13;;;;;;;;;;;;;;;22.34;74.62;100594.02;1686927;84;25948;-68
2022/08/25 03:08:41;;;;;;;25.80;6.40;;;;;;;22.33;74.94;100590.27;1684090;84;25640;-68
2022/08/25 03:11:09;;;;;;;20.45;6.83;;;;;;;22.29;74.77;100587.48;1664748;85;25486;-68
2022/08/25 03:13:36;;;;;;;21.07;7.25;;;;;;;22.29;74.82;100594.97;1650633;86;25653;-68
2022/08/25 03:16:05;;;;;;;22.85;6.35;;;;;;;22.27;75.04;100593.13;1647891;86;27300;-68
2022/08/25 03:18:31;;;;;;;21.48;6.55;;;;;;;22.23;75.05;100590.34;1682650;84;25722;-68
2022/08/25 03:20:58;;;;;;;19.25;6.85;;;;;;;22.23;75.01;100590.34;1689964;84;25432;-68
2022/08/25 03:23:25;;;;;;;19.45;6.35;;;;;;;22.24;75.25;100589.78;1687394;84;25602;-68
2022/08/25 03:28:40;;;;;;;18.90;7.40;;;;;;;22.21;75.20;100592.70;1687478;84;27413;-67
2022/08/25 03:31:08;;;;;;;26.10;7.97;;;;;;;22.19;75.33;100584.81;1677391;85;25868;-68
2022/08/25 03:33:35;;;;;;;23.65;8.03;;;;;;;22.20;75.46;100585.59;1687444;83;25674;-68
2022/08/25 03:36:02;;;;;;;35.25;7.75;;;;;;;;;;1687430;84;25683;-68
2022/08/25 03:38:28;;;;;;;31.07;8.00;;;;;;;22.17;75.70;100589.92;1687478;84;25643;-68
2022/08/25 03:40:54;;;;;;;34.83;8.28;;;;;;;22.15;75.83;100588.70;1687150;83;27433;-68
2022/08/25 03:43:20;;;;;;;24.95;8.33;;;;;;;22.13;75.83;100593.20;1687328;84;25685;-68
2022/08/25 03:45:48;;;;;;;22.10;7.22;;;;;;;22.13;76.00;100593.80;1687381;84;25649;-68
2022/08/25 03:48:16;;;;;;;25.40;7.72;;;;;;;22.12;76.09;100595.78;1687387;84;25641;-68
2022/08/25 03:50:49;;;;;;;21.45;7.08;;;;;;;22.12;76.06;100595.78;1688757;84;25594;-68
2022/08/25 03:53:16;;;;;;;25.12;8.05;;;;;;;22.12;76.18;100596.37;1688119;84;27423;-69
2022/08/25 03:55:42;;;;;;;22.42;9.15;;;;;;;22.12;76.27;100594.40;1687315;83;25572;-69
2022/08/25 03:58:08;;;;;;;26.37;7.60;;;;;;;22.11;76.34;100588.67;1687364;84;25628;-69
2022/08/25 04:00:34;;;;;;;22.87;7.42;;;;;;;22.12;76.46;100589.48;1687286;84;26049;-69
2022/08/25 04:03:01;;;;;;;31.30;9.33;;;;;;;22.13;76.49;100591.05;1687530;84;25328;-69
2022/08/25 04:05:27;;;;;;;26.30;7.35;;;;;;;22.13;76.56;100584.16;1640404;86;28269;-69
2022/08/25 04:07:54;;;;;;;27.17;8.83;;;;;;;22.13;76.67;100584.95;1684384;84;25613;-68
2022/08/25 04:10:21;;;;;;;26.07;8.35;;;;;;;22.15;76.66;100590.08;1687436;84;25837;-68
2022/08/25 04:12:48;;;;;;;28.10;9.75;;;;;;;22.13;76.68;100584.95;1687312;84;25610;-68
2022/08/25 04:15:14;;;;;;;33.15;9.45;;;;;;;22.12;76.81;100579.84;1687414;84;25779;-68
2022/08/25 04:17:40;;;;;;;26.97;8.83;;;;;;;22.11;76.94;100580.41;1687426;84;27323;-68
2022/08/25 04:20:10;;;;;;;29.82;9.10;;;;;;;22.09;76.92;100582.76;1685939;84;25794;-68
2022/08/25 04:22:37;;;;;;;31.77;9.70;;;;;;;22.11;77.03;100580.41;1655078;85;25677;-69
2022/08/25 04:25:06;;;;;;;34.70;9.53;;;;;;;22.12;77.09;100579.25;1675261;84;26089;-69
2022/08/25 04:27:32;;;;;;;41.25;9.28;;;;;;;22.14;77.16;100577.49;1675466;84;25676;-69
2022/08/25 04:29:59;;;;;;;32.05;9.38;;;;;;;22.16;77.16;100583.41;1675341;84;27614;-67
2022/08/25 04:32:25;;;;;;;43.68;10.55;;;;;;;22.14;77.12;100576.91;1675156;84;25404;-67
2022/08/25 04:34:52;;;;;;;38.35;10.32;;;;;;;22.16;77.22;100575.92;1677807;84;25733;-68
2022/08/25 04:37:18;;;;;;;33.28;9.78;;;;;;;22.19;77.25;100576.55;1675247;84;25697;-67
2022/08/25 04:39:45;;;;;;;39.55;10.23;;;;;;;22.22;77.28;100569.50;1675366;84;25580;-67
2022/08/25 04:42:11;;;;;;;36.28;10.80;;;;;;;22.24;77.30;100569.91;1675296;84;28068;-69
2022/08/25 04:44:37;;;;;;;32.25;9.48;;;;;;;22.28;77.28;100568.58;1675281;84;25545;-69
2022/08/25 04:47:04;;;;;;;40.73;10.08;;;;;;;22.31;77.23;100570.58;1675336;84;25779;-69
2022/08/25 04:49:31;;;;;;;33.58;8.88;;;;;;;22.34;77.16;100574.73;1675050;84;25634;-69
2022/08/25 04:51:58;;;;;;;36.53;10.70;;;;;;;22.37;77.12;100578.10;1675379;84;25672;-69
2022/08/25 04:54:24;;;;;;;41.83;9.55;;;;;;;22.40;77.17;100577.13;1675260;84;28025;-69
2022/08/25 04:56:51;;;;;;;45.23;10.80;;;;;;;22.44;76.95;100571.85;1675187;85;25635;-69
2022/08/25 04:59:18;;;;;;;32.13;9.20;;;;;;;22.46;76.90;100576.39;1675299;84;25593;-69
2022/08/25 05:01:45;;;;;;;45.70;9.60;;;;;;;22.49;76.89;100567.36;1675205;84;26101;-69
2022/08/25 05:04:15;;;;;;;32.38;9.45;;;;;;;22.52;76.77;100563.81;1675333;84;25641;-69
2022/08/25 05:06:43;;;;;;;35.78;9.75;;;;;;;22.55;76.63;100564.42;1643311;85;27302;-69
2022/08/25 05:09:09;;;;;;;39.75;11.03;;;;;;;22.59;76.67;100558.94;1675261;84;25398;-68
2022/08/25 05:11:36;;;;;;;37.58;9.53;;;;;;;22.62;76.35;100568.41;1675309;84;25701;-66
2022/08/25 05:14:04;;;;;;;40.35;10.78;;;;;;;22.64;76.16;100562.70;1675526;84;25733;-75
2022/08/25 05:16:31;;;;;;;39.27;11.53;;;;;;;22.67;76.20;100574.34;1675353;84;25688;-69
2022/08/25 05:18:57;;;;;;;34.27;10.43;;;;;;;22.70;76.12;100571.42;1675468;84;27896;-67
2022/08/25 05:21:27;;;;;;;34.98;9.80;;;;;;;22.75;76.09;100564.16;1649613;85;25492;-68
2022/08/25 05:23:56;;;;;;;37.75;9.85;;;;;;;22.80;76.11;100561.61;1638917;87;25674;-67
2022/08/25 05:26:25;;;;;;;36.48;10.43;;;;;;;22.86;76.09;100562.83;1641638;87;25435;-67
2022/08/25 05:28:53;;;;;;;39.90;9.80;;;;;;;22.93;76.04;100562.29;1642081;87;25995;-68
2022/08/25 05:31:23;;;;;;;30.90;10.18;;;;;;;23.01;75.92;100561.72;1641991;86;27329;-68
2022/08/25 05:33:50;;;;;;;;;;;;;;;23.06;75.71;100562.75;1626046;87;25419;-68
2022/08/25 05:36:18;;;;;;;34.75;10.85;;;;;;;23.13;75.62;100563.38;1632387;87;25651;-68
2022/08/25 05:38:45;;;;;;;36.15;10.40;;;;;;;23.19;75.59;100559.64;1627683;87;25694;-68
2022/08/25 05:41:16;;;;;;;43.80;11.78;;;;;;;23.28;75.23;100561.47;1642140;87;25668;-68
2022/08/25 05:43:46;;;;;;;39.65;11.55;;;;;;;23.36;75.17;100552.03;1636388;87;27354;-68
2022/08/25 05:46:14;;;;;;;46.83;13.38;;;;;;;23.46;75.22;100555.41;1638318;87;25657;-68
2022/08/25 05:48:40;;;;;;;48.25;10.63;;;;;;;23.58;74.89;100557.58;1637002;87;25687;-68
2022/08/25 05:51:10;;;;;;;50.50;14.40;;;;;;;23.67;74.84;100557.41;1640948;87;25479;-68
2022/08/25 05:53:41;;;;;;;44.67;11.08;;;;;;;23.79;74.25;100564.53;1638778;86;25437;-68
2022/08/25 05:56:08;;;;;;;29.75;11.08;;;;;;;23.90;73.98;100559.63;1603324;88;27392;-68
2022/08/25 05:58:36;;;;;;;36.60;11.78;;;;;;;24.02;73.70;100561.43;1571052;90;25750;-68
2022/08/25 06:03:52;;;;;;;41.45;10.78;;;;;;;24.23;73.00;100563.98;1639244;87;27589;-68
2022/08/25 06:06:17;;;;;;;44.88;12.37;;;;;;;24.38;73.16;100562.78;1632376;87;26522;-68
2022/08/25 06:08:44;;;;;;;57.38;12.95;;;;;;;24.52;72.77;100566.12;1608527;87;27744;-67
2022/08/25 06:11:13;;;;;;;46.30;10.08;;;;;;;24.66;72.53;100572.23;1642001;87;25669;-67
2022/08/25 06:13:40;;;;;;;37.80;10.30;;;;;;;24.82;72.06;100566.86;1638220;86;25685;-68
2022/08/25 06:16:07;;;;;;;42.67;10.95;;;;;;;24.97;71.85;100571.16;1622558;87;25749;-67
2022/08/25 06:18:33;;;;;;;34.53;11.33;;;;;;;25.13;71.51;100572.06;1641827;87;25420;-68
2022/08/25 06:21:12;;;;;;;35.38;10.48;;;;;;;25.33;71.58;100569.63;1642476;85;27772;-68
2022/08/25 06:23:40;;;;;;;36.93;10.48;;;;;;;25.53;70.92;100569.92;1678182;84;25450;-68
2022/08/25 06:26:10;;;;;;;52.10;10.70;;;;;;;25.76;70.48;100568.58;1656800;85;25571;-68
2022/08/25 06:28:36;;;;;;;37.42;9.85;;;;;;;25.92;69.83;100570.25;1681965;84;25322;-69
2022/08/25 06:31:03;;;;;;;38.95;10.18;;;;;;;26.08;69.14;100573.33;1681960;84;25511;-69
2022/08/25 06:33:29;;;;;;;39.20;10.72;;;;;;;26.28;68.85;100572.75;1682122;84;27991;-68
2022/08/25 06:35:57;;;;;;;29.52;9.23;;;;;;;26.47;67.92;100579.09;1681889;84;25632;-67
2022/08/25 06:38:24;;;;;;;36.20;9.23;;;;;;;26.67;67.65;100576.37;1682047;84;25739;-67
2022/08/25 06:40:51;;;;;;;33.92;8.98;;;;;;;26.90;67.49;100575.70;1681807;84;27449;-68
2022/08/25 06:43:22;;;;;;;39.27;9.40;;;;;;;27.12;66.57;100583.16;1681748;84;25689;-68
2022/08/25 06:45:48;;;;;;;36.15;9.75;;;;;;;27.31;65.84;100576.20;1681977;84;27330;-68
2022/08/25 06:48:15;;;;;;;35.55;8.88;;;;;;;27.54;65.52;100577.67;1682313;84;25685;-68
2022/08/25 06:50:43;;;;;;;29.30;9.30;;;;;;;27.78;65.25;100574.16;1681705;84;25767;-68
2022/08/25 06:53:09;;;;;;;43.63;10.35;;;;;;;28.03;64.39;100583.53;1681972;84;25471;-69
2022/08/25 06:55:36;;;;;;;41.65;10.23;;;;;;;28.26;63.40;100579.33;1682027;84;25662;-68
2022/08/25 06:58:04;;;;;;;34.25;10.63;;;;;;;28.47;62.85;100576.02;1681346;85;27395;-73
2022/08/25 07:00:31;;;;;;;37.28;9.35;;;;;;;28.74;62.47;100577.91;1671264;83;50603;-71
2022/08/25 07:02:59;;;;;;;39.63;9.33;;;;;;;28.91;61.13;100576.75;1647497;85;25787;-72
2022/08/25 07:05:28;;;;;;;41.98;10.28;;;;;;;29.15;60.98;100578.06;1668965;84;25775;-71
2022/08/25 07:07:54;;;;;;;45.40;14.10;;;;;;;29.42;60.55;100580.69;1676294;83;25749;-70
2022/08/25 07:10:21;;;;;;;30.68;9.43;;;;;;;29.68;59.68;100582.30;1674041;83;28051;-71
2022/08/25 07:12:47;;;;;;;37.25;8.63;;;;;;;29.91;59.24;100579.37;1669956;85;25701;-74
2022/08/25 07:15:13;;;;;;;33.42;9.28;;;;;;;30.19;58.56;100572.93;1666068;84;25457;-71
2022/08/25 07:17:40;;;;;;;29.48;8.95;;;;;;;30.46;57.64;100584.40;1681454;83;25770;-72
2022/08/25 07:20:07;;;;;;;30.48;8.88;;;;;;;30.68;56.88;100584.60;1642363;84;26496;-72
2022/08/25 07:22:34;;;;;;;32.98;8.40;;;;;;;30.91;56.69;100585.73;1671146;84;27429;-72
2022/08/25 07:25:00;;;;;;;26.50;7.67;;;;;;;31.19;55.51;100584.75;1668963;84;25601;-71
2022/08/25 07:27:26;;;;;;;27.22;8.95;;;;;;;31.43;54.53;100588.05;1670160;83;25708;-72
2022/08/25 07:29:56;;;;;;;32.17;8.70;;;;;;;31.71;54.00;100589.80;1673288;84;25709;-71
2022/08/25 07:32:23;;;;;;;32.83;8.50;;;;;;;32.00;53.41;100598.03;1665934;83;25698;-71
2022/08/25 07:37:39;;;;;;;27.52;7.62;;;;;;;32.37;51.70;100590.66;1579127;88;25797;-72
2022/08/25 07:40:10;;;;;;;30.15;8.15;;;;;;;32.53;50.49;100591.09;1579641;89;25822;-72
2022/08/25 07:42:36;;;;;;;31.68;8.10;;;;;;;32.68;50.41;100589.37;1580902;89;26009;-71
2022/08/25 07:45:05;;;;;;;21.65;7.55;;;;;;;32.93;49.55;100596.06;1588919;89;25989;-72
2022/08/25 07:47:31;;;;;;;23.52;8.18;;;;;;;33.13;49.21;100594.32;1593819;89;27356;-71
2022/08/25 07:49:58;;;;;;;22.95;7.65;;;;;;;33.42;48.88;100591.85;1587906;89;25751;-72
2022/08/25 07:52:25;;;;;;;35.45;7.50;;;;;;;33.71;48.20;100588.71;1590547;89;25718;-70
2022/08/25 07:54:53;;;;;;;25.37;7.47;;;;;;;34.02;47.34;100587.84;1560514;89;25548;-73
2022/08/25 07:57:21;;;;;;;27.15;7.75;;;;;;;34.22;46.22;100588.24;1582900;89;25737;-71
2022/08/25 07:59:47;;;;;;;29.67;7.95;;;;;;;34.29;46.04;100591.34;1582148;89;28544;-72
2022/08/25 08:02:13;;;;;;;27.15;7.72;;;;;;;34.32;45.52;100584.02;1570940;89;44348;-72
2022/08/25 08:04:45;;;;;;;24.82;7.60;;;;;;;34.41;44.81;100591.83;1581709;89;25877;-71
2022/08/25 08:07:08;;;;;;;21.02;6.90;;;;;;;34.65;45.32;100592.61;1556027;91;25554;-71
2022/08/25 08:09:34;;;;;;;25.70;6.87;;;;;;;34.94;44.26;100587.91;1629333;86;25638;-71
2022/08/25 08:12:00;;;;;;;20.05;7.97;;;;;;;35.29;43.53;100593.13;1634150;86;27305;-71
2022/08/25 08:14:26;;;;;;;13.93;6.85;;;;;;;35.66;42.71;100597.83;1653131;86;25752;-71
2022/08/25 08:16:53;;;;;;;25.02;6.53;;;;;;;35.97;41.92;100589.70;1643657;85;25706;-71
2022/08/25 08:19:21;;;;;;;25.17;7.95;;;;;;;36.25;41.58;100600.16;1647598;86;25929;-73
2022/08/25 08:21:48;;;;;;;25.35;7.10;;;;;;;36.55;40.55;100595.38;1638444;85;25705;-72
2022/08/25 08:24:15;;;;;;;19.77;6.53;;;;;;;36.80;39.67;100594.72;1635225;86;28814;-72
2022/08/25 08:26:41;;;;;;;28.05;7.58;;;;;;;36.93;39.47;100589.58;1643924;85;25792;-70
2022/08/25 08:29:08;;;;;;;25.00;6.55;;;;;;;37.18;39.12;100594.48;1630674;85;25715;-74
2022/08/25 08:31:34;;;;;;;19.05;6.12;;;;;;;37.43;38.42;100588.86;1633669;86;25809;-71
2022/08/25 08:34:01;;;;;;;29.32;7.15;;;;;;;37.81;38.07;100588.52;1632341;85;25876;-71
2022/08/25 08:36:27;;;;;;;15.25;6.92;;;;;;;38.14;37.06;100584.59;1630369;85;27244;-74
2022/08/25 08:38:53;;;;;;;17.05;5.90;;;;;;;38.42;35.59;100591.23;1640774;86;25809;-72
2022/08/25 08:44:46;;;;;;;11.65;5.00;;;;;;;38.59;34.41;100587.20;1641190;85;26017;-72
2022/08/25 08:47:21;;;;;;;18.77;6.40;;;;;;;38.80;34.35;100592.91;1643180;85;25472;-71
2022/08/25 08:50:05;;;;;;;16.62;5.55;;;;;;;38.97;34.45;100592.30;1649275;86;27907;-72
2022/08/25 08:52:55;;;;;;;16.30;6.08;;;;;;;39.01;33.88;100596.45;1636800;85;25635;-71
2022/08/25 08:55:43;;;;;;;19.27;5.50;;;;;;;39.27;33.72;100590.00;1634612;86;25693;-70
2022/08/25 08:58:21;;;;;;;16.73;5.90;;;;;;;39.42;33.02;100592.69;1639075;86;25719;-72
2022/08/25 09:01:00;;;;;;;15.20;6.22;;;;;;;39.56;32.35;100589.58;1639495;85;26752;-74
2022/08/25 09:03:38;;;;;;;12.70;5.62;;;;;;;39.63;31.82;100589.10;1655830;85;27479;-71
2022/08/25 09:06:25;;;;;;;16.48;5.83;;;;;;;39.80;32.15;100589.19;1647816;86;25703;-72
2022/08/25 09:08:54;;;;;;;14.38;5.35;;;;;;;39.94;31.18;100588.25;1644332;85;25879;-71
2022/08/25 09:11:41;;;;;;;23.55;5.65;;;;;;;40.09;31.06;100585.87;1655255;86;25663;-70
2022/08/25 09:14:40;;;;;;;19.05;5.25;;;;;;;40.24;30.29;100585.67;1645121;85;25658;-70
2022/08/25 09:17:39;;;;;;;16.40;4.90;;;;;;;40.48;30.47;100588.08;1636816;85;27314;-73
2022/08/25 09:20:26;;;;;;;12.65;4.90;;;;;;;40.46;28.65;100585.76;1640915;85;25695;-70
2022/08/25 09:23:01;;;;;;;14.87;5.17;;;;;;;40.47;29.15;100586.52;1646300;85;25588;-68
2022/08/25 12:03:35;;;;;;;9.50;2.98;;;;;;;40.47;18.79;100470.34;1785187;75;27830;-74
2022/08/25 12:06:24;;;;;;;;;;;;;;;40.41;18.56;100462.50;1709412;82;25903;-74
2022/08/25 12:09:02;;;;;;;11.35;3.42;;;;;;;40.30;18.44;100470.30;1717173;82;25703;-74
2022/08/25 12:11:53;;;;;;;6.80;3.10;;;;;;;40.33;18.24;100467.86;1706179;82;25883;-76
2022/08/25 12:14:27;;;;;;;7.35;2.77;;;;;;;40.20;18.61;100464.75;1701376;82;25467;-76
2022/08/25 12:16:59;;;;;;;7.05;3.05;;;;;;;40.27;18.77;100469.28;1709422;82;27703;-74
2022/08/25 12:19:40;;;;;;;7.80;2.52;;;;;;;40.15;18.04;100467.70;1709291;82;25759;-75
2022/08/25 12:22:12;;;;;;;6.17;2.52;;;;;;;39.76;18.15;100466.30;1700097;82;25734;-74
2022/08/25 12:24:51;;;;;;;7.53;2.80;;;;;;;39.87;18.69;100477.53;1715218;82;25815;-74
2022/08/25 12:27:31;;;;;;;13.55;3.40;;;;;;;39.72;18.50;100473.48;1716843;82;25537;-74
2022/08/25 12:30:06;;;;;;;8.45;2.80;;;;;;;39.72;18.11;100470.66;1716476;82;27682;-74
2022/08/25 12:33:14;;;;;;;8.53;3.00;;;;;;;39.63;18.61;100454.67;1690721;82;25848;-74
2022/08/25 12:36:03;;;;;;;7.25;3.08;;;;;;;39.71;18.81;100459.19;1698847;82;25846;-75
2022/08/25 12:38:43;;;;;;;8.13;3.15;;;;;;;39.63;18.84;100455.33;1717078;82;25792;-74
2022/08/25 12:41:18;;;;;;;4.75;2.80;;;;;;;39.66;18.99;100458.53;1704923;82;25642;-75
2022/08/25 12:43:48;;;;;;;6.55;3.00;;;;;;;39.61;18.84;100460.08;1754132;79;27385;-75
2022/08/25 12:46:31;;;;;;;9.58;3.08;;;;;;;39.32;18.23;100451.31;1749967;79;25445;-75
2022/08/25 12:49:31;;;;;;;11.20;3.47;;;;;;;39.03;18.66;100442.62;1751698;80;25703;-75
2022/08/25 12:52:02;;;;;;;7.35;2.47;;;;;;;39.25;19.43;100445.48;1746383;79;26923;-75
2022/08/25 12:54:40;;;;;;;5.80;3.08;;;;;;;39.60;19.63;100444.37;1757717;80;25495;-75
2022/08/25 12:57:24;;;;;;;11.00;3.35;;;;;;;39.96;19.50;100439.09;1701814;83;27502;-75
2022/08/25 12:59:55;;;;;;;4.53;2.80;;;;;;;40.24;19.46;100437.73;1688642;83;25956;-76
2022/08/25 13:02:39;;;;;;;7.75;3.10;;;;;;;40.50;19.19;100438.91;1622944;85;25786;-76
2022/08/25 13:05:17;;;;;;;5.70;2.80;;;;;;;40.59;18.51;100441.36;1669413;85;25718;-76
2022/08/25 13:08:29;;;;;;;7.85;2.95;;;;;;;40.60;18.50;100441.50;1665738;85;25877;-75
2022/08/25 13:11:38;;;;;;;5.03;2.95;;;;;;;40.60;18.51;100437.25;1687719;84;27544;-75
2022/08/25 13:14:31;;;;;;;11.05;3.30;;;;;;;40.72;18.22;100433.11;1650101;84;25385;-75
2022/08/25 13:16:59;;;;;;;3.62;2.98;;;;;;;40.49;18.32;100429.51;1672717;84;25845;-75
2022/08/25 13:19:28;;;;;;;6.17;2.65;;;;;;;40.44;17.21;100439.58;1664624;84;25748;-75
2022/08/25 13:21:57;;;;;;;7.17;3.30;;;;;;;40.15;18.10;100435.12;1649807;85;26885;-75
2022/08/25 13:24:34;;;;;;;5.03;2.45;;;;;;;40.07;18.28;100439.12;1672471;84;27534;-75
2022/08/25 13:27:05;;;;;;;7.08;3.00;;;;;;;39.89;18.23;100432.49;1659370;84;25894;-75
2022/08/25 13:29:36;;;;;;;7.50;2.95;;;;;;;39.88;17.68;100430.94;1684063;84;25790;-74
2022/08/25 13:32:10;;;;;;;5.47;2.52;;;;;;;39.62;18.21;100429.72;1664665;84;25457;-74
2022/08/25 13:34:39;;;;;;;5.65;3.15;;;;;;;39.58;17.91;100426.48;1669322;82;25825;-74
2022/08/25 13:37:28;;;;;;;10.05;2.77;;;;;;;39.34;17.95;100431.13;1678762;83;27329;-74
2022/08/25 13:40:19;;;;;;;6.42;2.92;;;;;;;39.09;18.08;100426.37;1679550;84;25795;-75
2022/08/25 13:42:48;;;;;;;;;;;;;;;38.89;18.70;100423.00;1708631;82;25909;-74
2022/08/25 13:45:22;;;;;;;10.15;3.10;;;;;;;38.81;18.73;100417.82;1680560;82;25544;-67
2022/08/25 13:47:50;;;;;;;7.03;2.85;;;;;;;38.53;20.01;100426.70;1684551;83;25923;-67
2022/08/25 13:50:29;;;;;;;;;;;;;;;37.86;20.37;100419.89;1696218;84;27421;-66
2022/08/25 13:53:07;;;;;;;6.72;3.77;;;;;;;37.29;20.77;100423.28;1692552;84;25946;-67
2022/08/25 13:55:52;;;;;;;;;;;;;;;36.77;21.41;100420.34;1668823;84;26135;-67
2022/08/25 13:58:27;;;;;;;14.45;8.78;;;;;;;36.41;21.87;100422.95;1712423;82;25893;-66
2022/08/25 14:01:21;;;;;;;7.05;3.80;;;;;;;35.84;22.10;100410.66;1717584;81;25473;-67
2022/08/25 14:03:48;;;;;;;13.45;3.25;;;;;;;35.63;22.40;100413.14;1697882;82;27501;-66
2022/08/25 14:06:20;;;;;;;9.35;3.17;;;;;;;35.20;22.25;100409.67;1701911;82;25685;-66
2022/08/25 14:09:01;;;;;;;11.48;3.33;;;;;;;34.96;23.04;100407.61;1727464;81;25524;-66
2022/08/25 14:11:48;;;;;;;6.95;3.15;;;;;;;34.68;23.30;100406.91;1717278;81;25602;-67
2022/08/25 14:14:29;;;;;;;5.03;3.25;;;;;;;34.58;23.68;100413.18;1720683;81;25741;-67
2022/08/25 14:17:04;;;;;;;6.00;3.50;;;;;;;34.55;24.03;100408.53;1730422;81;27396;-67
2022/08/25 14:19:31;;;;;;;8.03;3.27;;;;;;;34.56;24.04;100406.63;1718329;81;25638;-67
2022/08/25 14:22:00;;;;;;;7.42;3.37;;;;;;;34.65;24.04;100404.44;1721186;81;25721;-68
2022/08/25 14:24:34;;;;;;;7.67;3.10;;;;;;;34.75;24.01;100405.98;1712532;81;25505;-67
2022/08/25 14:27:03;;;;;;;7.15;2.90;;;;;;;34.83;24.13;100398.61;1713199;82;25765;-67